createdAt,value
2019-02-24T00:03:15.261Z,175.67
2019-02-24T00:08:16.860Z,164.20
2019-02-24T00:13:18.472Z,181.50
2019-02-24T00:18:20.132Z,200.10
2019-02-24T00:23:21.688Z,202.20
2019-02-24T00:28:23.552Z,148.60
2019-02-24T00:33:26.199Z,85.73
2019-02-24T00:38:27.768Z,86.23
2019-02-24T00:43:30.631Z,72.60
2019-02-24T00:48:32.278Z,87.40
2019-02-24T00:53:33.833Z,102.73
2019-02-24T00:58:35.386Z,125.43
2019-02-24T01:03:36.947Z,142.20
2019-02-24T01:08:39.499Z,156.27
2019-02-24T01:13:41.091Z,177.23
2019-02-24T01:18:42.631Z,155.20
2019-02-24T01:23:44.225Z,139.33
2019-02-24T01:28:45.789Z,137.63
2019-02-24T01:33:47.342Z,129.83
2019-02-24T01:38:48.890Z,155.10
2019-02-24T01:43:50.447Z,148.63
2019-02-24T01:48:52.109Z,143.03
2019-02-24T01:53:53.709Z,148.00
2019-02-24T01:58:55.363Z,121.83
2019-02-24T02:03:56.909Z,129.47
2019-02-24T02:08:58.720Z,130.50
2019-02-24T02:14:00.272Z,124.43
2019-02-24T02:19:01.912Z,121.03
2019-02-24T02:24:05.529Z,116.90
2019-02-24T02:29:07.076Z,114.13
2019-02-24T02:34:09.037Z,120.30
2019-02-24T02:39:10.602Z,118.63
2019-02-24T02:44:12.246Z,131.97
2019-02-24T02:49:15.297Z,129.17
2019-02-24T02:54:16.905Z,131.77
2019-02-24T02:59:18.455Z,126.20
2019-02-24T03:04:20.004Z,134.40
2019-02-24T03:09:22.577Z,119.67
2019-02-24T03:14:24.242Z,107.70
2019-02-24T03:19:25.996Z,91.13
2019-02-24T03:24:27.782Z,87.77
2019-02-24T03:29:29.339Z,91.90
2019-02-24T03:34:31.027Z,84.43
2019-02-24T03:39:32.688Z,88.77
2019-02-24T03:44:34.223Z,85.10
2019-02-24T03:49:35.884Z,107.97
2019-02-24T03:54:37.625Z,96.10
2019-02-24T03:59:39.163Z,84.93
2019-02-24T04:04:41.163Z,85.83
2019-02-24T04:09:42.736Z,89.97
2019-02-24T04:14:44.285Z,86.97
2019-02-24T04:19:45.831Z,88.13
2019-02-24T04:24:47.389Z,90.73
2019-02-24T04:29:48.935Z,96.30
2019-02-24T04:34:50.525Z,88.03
2019-02-24T04:39:52.073Z,92.97
2019-02-24T04:44:55.521Z,75.77
2019-02-24T04:49:57.175Z,86.77
2019-02-24T04:54:58.723Z,90.80
2019-02-24T05:00:00.514Z,75.37
2019-02-24T05:05:03.796Z,69.27
2019-02-24T05:10:06.616Z,75.03
2019-02-24T05:15:08.372Z,70.90
2019-02-24T05:20:10.023Z,76.57
2019-02-24T05:25:11.675Z,69.40
2019-02-24T05:30:13.223Z,62.20
2019-02-24T05:35:14.770Z,63.40
2019-02-24T05:40:16.361Z,55.80
2019-02-24T05:45:17.912Z,57.33
2019-02-24T05:50:20.296Z,66.03
2019-02-24T05:55:23.083Z,53.90
2019-02-24T06:00:24.637Z,53.03
2019-02-24T06:05:26.186Z,63.13
2019-02-24T06:10:27.768Z,55.50
2019-02-24T06:15:29.317Z,67.57
2019-02-24T06:20:30.897Z,70.53
2019-02-24T06:25:32.564Z,75.13
2019-02-24T06:30:34.110Z,62.37
2019-02-24T06:35:36.092Z,69.97
2019-02-24T06:40:37.673Z,70.87
2019-02-24T06:45:39.228Z,47.83
2019-02-24T06:51:00.791Z,47.80
2019-02-24T06:56:02.341Z,63.83
2019-02-24T07:01:04.899Z,56.73
2019-02-24T07:06:06.463Z,64.53
2019-02-24T07:11:09.176Z,60.40
2019-02-24T07:16:10.736Z,58.80
2019-02-24T07:21:12.292Z,66.63
2019-02-24T07:26:13.846Z,63.40
2019-02-24T07:31:15.394Z,61.70
2019-02-24T07:36:16.940Z,75.80
2019-02-24T07:41:18.538Z,69.50
2019-02-24T07:46:20.231Z,59.87
2019-02-24T07:51:22.148Z,65.27
2019-02-24T07:56:23.712Z,60.80
2019-02-24T08:01:25.255Z,62.17
2019-02-24T08:06:26.810Z,74.43
2019-02-24T08:11:28.404Z,70.83
2019-02-24T08:16:29.994Z,57.63
2019-02-24T08:21:31.553Z,64.00
2019-02-24T08:26:33.367Z,68.77
2019-02-24T08:31:35.038Z,73.27
2019-02-24T08:36:36.689Z,71.50
2019-02-24T08:41:38.336Z,67.10
2019-02-24T08:46:39.934Z,68.90
2019-02-24T08:51:44.571Z,55.43
2019-02-24T08:56:46.148Z,56.60
2019-02-24T09:01:47.701Z,70.70
2019-02-24T09:06:49.258Z,70.93
2019-02-24T09:11:50.813Z,63.27
2019-02-24T09:16:52.412Z,59.37
2019-02-24T09:21:53.963Z,68.13
2019-02-24T09:26:55.532Z,65.10
2019-02-24T09:31:57.086Z,74.03
2019-02-24T09:36:58.728Z,65.83
2019-02-24T09:42:00.400Z,66.10
2019-02-24T09:47:02.000Z,63.27
2019-02-24T09:52:03.850Z,56.60
2019-02-24T09:57:05.410Z,68.37
2019-02-24T10:02:06.968Z,72.57
2019-02-24T10:07:08.623Z,65.57
2019-02-24T10:12:10.175Z,95.63
2019-02-24T10:17:11.763Z,87.57
2019-02-24T10:22:13.430Z,95.07
2019-02-24T10:27:15.192Z,78.77
2019-02-24T10:32:16.842Z,86.33
2019-02-24T10:37:18.407Z,79.77
2019-02-24T10:42:20.170Z,82.20
2019-02-24T10:47:22.136Z,72.37
2019-02-24T10:52:23.834Z,74.07
2019-02-24T10:57:25.411Z,72.77
2019-02-24T11:02:26.960Z,69.00
2019-02-24T11:07:28.618Z,39.70
2019-02-24T11:12:30.183Z,67.13
2019-02-24T11:17:31.782Z,85.67
2019-02-24T11:22:33.335Z,64.43
2019-02-24T11:27:34.895Z,76.00
2019-02-24T11:32:36.549Z,70.33
2019-02-24T11:37:38.381Z,104.50
2019-02-24T11:42:40.284Z,83.20
2019-02-24T11:47:41.999Z,83.27
2019-02-24T11:52:43.673Z,99.27
2019-02-24T11:57:46.302Z,80.50
2019-02-24T12:02:47.983Z,84.13
2019-02-24T12:07:49.532Z,70.87
2019-02-24T12:12:51.256Z,61.27
2019-02-24T12:17:52.838Z,99.30
2019-02-24T12:22:54.619Z,58.07
2019-02-24T12:27:56.183Z,56.70
2019-02-24T12:32:57.767Z,60.17
2019-02-24T12:37:59.439Z,48.77
2019-02-24T12:43:01.047Z,75.13
2019-02-24T12:48:02.700Z,62.77
2019-02-24T12:53:04.547Z,57.93
2019-02-24T12:58:07.505Z,42.13
2019-02-24T13:03:09.294Z,34.57
2019-02-24T13:08:10.951Z,36.80
2019-02-24T13:13:12.572Z,48.80
2019-02-24T13:18:14.246Z,44.00
2019-02-24T13:23:15.935Z,42.50
2019-02-24T13:28:17.496Z,41.57
2019-02-24T13:33:19.051Z,41.83
2019-02-24T13:38:20.619Z,46.13
2019-02-24T13:43:22.274Z,43.57
2019-02-24T13:48:23.878Z,28.27
2019-02-24T13:53:25.604Z,35.03
2019-02-24T13:58:27.167Z,32.47
2019-02-24T14:03:28.731Z,27.10
2019-02-24T14:08:30.461Z,36.13
2019-02-24T14:13:32.015Z,48.20
2019-02-24T14:18:33.688Z,36.53
2019-02-24T14:23:35.273Z,45.07
2019-02-24T14:28:36.852Z,52.33
2019-02-24T14:33:38.400Z,47.33
2019-02-24T14:38:40.053Z,42.07
2019-02-24T14:43:41.708Z,52.23
2019-02-24T14:48:44.754Z,72.20
2019-02-24T14:53:46.566Z,47.20
2019-02-24T14:58:50.093Z,57.37
2019-02-24T15:03:52.056Z,51.23
2019-02-24T15:08:53.615Z,60.90
2019-02-24T15:13:55.173Z,45.70
2019-02-24T15:18:56.728Z,52.10
2019-02-24T15:23:58.282Z,57.23
2019-02-24T15:29:00.104Z,61.50
2019-02-24T15:34:01.665Z,69.17
2019-02-24T15:39:04.465Z,60.83
2019-02-24T15:44:06.819Z,58.77
2019-02-24T15:49:09.633Z,57.07
2019-02-24T15:54:13.304Z,54.63
2019-02-24T15:59:14.902Z,80.40
2019-02-24T16:04:18.472Z,90.87
2019-02-24T16:09:20.264Z,69.47
2019-02-24T16:14:22.521Z,74.73
2019-02-24T16:19:27.409Z,83.67
2019-02-24T16:24:28.972Z,76.53
2019-02-24T16:29:31.052Z,127.67
2019-02-24T16:34:34.713Z,102.17
2019-02-24T16:39:38.324Z,115.53
2019-02-24T16:44:41.083Z,92.80
2019-02-24T16:49:43.749Z,87.63
2019-02-24T16:54:52.646Z,107.67
2019-02-24T16:59:50.796Z,106.77
2019-02-24T17:04:52.416Z,86.50
2019-02-24T17:09:55.209Z,71.83
2019-02-24T17:14:57.821Z,75.63
2019-02-24T17:20:01.323Z,69.10
2019-02-24T17:25:08.192Z,71.37
2019-02-24T17:30:15.895Z,72.90
2019-02-24T17:35:17.489Z,61.57
2019-02-24T17:40:20.448Z,62.03
2019-02-24T17:45:22.016Z,59.97
2019-02-24T17:50:23.572Z,62.43
2019-02-24T17:55:25.336Z,48.33
2019-02-24T18:00:35.893Z,64.50
2019-02-24T18:05:37.586Z,69.03
2019-02-24T18:10:40.026Z,97.30
2019-02-24T18:15:41.699Z,75.97
2019-02-24T18:20:43.361Z,78.03
2019-02-24T18:25:45.107Z,61.27
2019-02-24T18:30:46.809Z,63.90
2019-02-24T18:35:48.421Z,52.27
2019-02-24T18:40:49.992Z,55.37
2019-02-24T18:45:54.639Z,76.30
2019-02-24T18:50:56.290Z,122.57
2019-02-24T18:55:59.932Z,82.97
2019-02-24T19:01:02.053Z,79.87
2019-02-24T19:06:05.876Z,79.50
2019-02-24T19:11:09.351Z,79.70
2019-02-24T19:16:11.734Z,91.77
2019-02-24T19:21:14.650Z,72.10
2019-02-24T19:26:17.619Z,66.00
2019-02-24T19:31:20.460Z,76.57
2019-02-24T19:36:23.284Z,77.20
2019-02-24T19:41:27.976Z,70.10
2019-02-24T19:46:29.641Z,81.90
2019-02-24T19:51:31.759Z,98.17
2019-02-24T19:56:34.991Z,78.07
2019-02-24T20:01:38.874Z,61.27
2019-02-24T20:06:42.377Z,66.63
2019-02-24T20:11:45.943Z,67.27
2019-02-24T20:16:47.697Z,70.37
2019-02-24T20:21:49.505Z,62.93
2019-02-24T20:26:52.220Z,66.07
2019-02-24T20:31:54.104Z,67.07
2019-02-24T20:36:57.717Z,64.20
2019-02-24T20:42:01.175Z,59.83
2019-02-24T20:47:04.076Z,64.47
2019-02-24T20:52:05.808Z,60.13
2019-02-24T20:57:09.646Z,66.73
2019-02-24T21:02:12.593Z,56.33
2019-02-24T21:07:17.157Z,58.73
2019-02-24T21:12:18.720Z,52.67
2019-02-24T21:17:21.510Z,54.47
2019-02-24T21:22:23.081Z,67.10
2019-02-24T21:27:24.928Z,51.73
2019-02-24T21:32:28.787Z,58.80
2019-02-24T21:37:30.497Z,47.03
2019-02-24T21:42:34.749Z,39.77
2019-02-24T21:47:36.331Z,57.70
2019-02-24T21:52:38.784Z,52.53
2019-02-24T21:57:42.295Z,54.13
2019-02-24T22:02:45.299Z,53.87
2019-02-24T22:07:47.167Z,51.57
2019-02-24T22:12:48.940Z,53.93
2019-02-24T22:17:52.252Z,51.13
2019-02-24T22:22:53.877Z,63.10
2019-02-24T22:27:55.815Z,57.07
2019-02-24T22:32:59.476Z,50.73
2019-02-24T22:38:02.575Z,66.87
2019-02-24T22:43:04.179Z,62.93
2019-02-24T22:48:05.860Z,59.77
2019-02-24T22:53:07.923Z,59.87
2019-02-24T22:58:13.036Z,60.90
2019-02-24T23:03:14.696Z,56.50
2019-02-24T23:08:16.448Z,62.90
2019-02-24T23:13:18.250Z,56.10
2019-02-24T23:18:19.920Z,55.67
2019-02-24T23:23:21.684Z,61.97
2019-02-24T23:28:23.629Z,64.90
2019-02-24T23:33:25.355Z,69.27
2019-02-24T23:38:26.899Z,69.57
2019-02-24T23:43:30.601Z,65.83
2019-02-24T23:48:34.963Z,63.53
2019-02-24T23:53:36.623Z,73.87
2019-02-24T23:58:38.526Z,69.23
